Time;durP1;ratioP1;P1;durP2;ratioP2;P2;SDS_P1;SDS_P2;PMS_P1;PMS_P2;Temp;Humidity;BMP_temperature;BMP_pressure;BME280_temperature;BME280_humidity;BME280_pressure;Samples;Min_cycle;Max_cycle;Signal;HPM_P1;HPM_P2
2021/06/22 00:02:13;;;;;;;0.80;0.60;;;17.70;99.90;;;;;;5081231;28;20173;-77
2021/06/22 00:04:39;;;;;;;0.80;0.60;;;17.70;99.90;;;;;;5084683;28;20229;-77
2021/06/22 00:07:04;;;;;;;0.70;0.50;;;17.60;99.90;;;;;;5071226;28;20229;-77
2021/06/22 00:09:30;;;;;;;3.10;1.00;;;17.60;99.90;;;;;;5072570;28;20205;-77
2021/06/22 00:11:55;;;;;;;0.80;0.50;;;17.60;99.90;;;;;;5091992;28;20177;-77
2021/06/22 00:14:21;;;;;;;0.80;0.60;;;17.50;99.90;;;;;;5089731;28;20193;-77
2021/06/22 00:16:46;;;;;;;1.17;0.60;;;17.50;99.90;;;;;;5088078;28;20182;-77
2021/06/22 00:19:13;;;;;;;1.23;1.10;;;17.40;99.90;;;;;;5086036;28;20178;-77
2021/06/22 00:21:39;;;;;;;0.90;0.70;;;17.40;99.90;;;;;;5071862;28;20174;-77
2021/06/22 00:24:05;;;;;;;1.00;0.90;;;17.40;99.90;;;;;;5071753;28;20944;-76
2021/06/22 00:26:31;;;;;;;0.80;0.57;;;17.40;99.90;;;;;;5085123;28;20178;-77
2021/06/22 00:28:56;;;;;;;1.17;1.07;;;17.30;99.90;;;;;;5081644;28;20447;-77
2021/06/22 00:31:22;;;;;;;0.83;0.77;;;17.40;99.90;;;;;;5070999;28;20206;-76
2021/06/22 00:33:47;;;;;;;0.70;0.50;;;17.30;99.90;;;;;;5081330;28;20166;-77
2021/06/22 00:36:13;;;;;;;1.37;1.23;;;17.30;99.90;;;;;;5071322;28;20651;-77
2021/06/22 00:38:39;;;;;;;0.70;0.50;;;17.30;99.90;;;;;;5074052;28;20204;-77
2021/06/22 00:41:05;;;;;;;1.10;0.97;;;17.30;99.90;;;;;;5086801;28;20174;-77
2021/06/22 00:43:31;;;;;;;2.07;1.20;;;17.20;99.90;;;;;;5083151;28;20170;-76
2021/06/22 00:45:56;;;;;;;1.30;1.20;;;17.30;99.90;;;;;;5079106;28;20439;-77
2021/06/22 00:48:22;;;;;;;0.80;0.60;;;17.20;99.90;;;;;;5073952;28;20289;-77
2021/06/22 00:50:47;;;;;;;0.80;0.60;;;17.20;99.90;;;;;;5078037;28;20274;-77
2021/06/22 00:53:13;;;;;;;1.33;1.23;;;17.20;99.90;;;;;;5092439;28;20842;-77
2021/06/22 00:55:38;;;;;;;0.90;0.80;;;17.20;99.90;;;;;;5084877;28;20170;-78
2021/06/22 00:58:06;;;;;;;0.77;0.57;;;17.20;99.90;;;;;;5072762;28;20550;-76
2021/06/22 01:00:33;;;;;;;1.20;0.70;;;17.20;99.90;;;;;;5071591;28;20227;-76
2021/06/22 01:03:00;;;;;;;0.90;0.80;;;17.20;99.90;;;;;;5073475;28;20423;-77
2021/06/22 01:05:26;;;;;;;1.47;1.37;;;17.20;99.90;;;;;;5073681;28;20436;-77
2021/06/22 01:07:53;;;;;;;1.00;0.90;;;17.30;99.90;;;;;;5081526;28;20486;-77
2021/06/22 01:10:23;;;;;;;0.87;0.87;;;17.30;99.90;;;;;;5073181;28;20467;-77
2021/06/22 01:12:50;;;;;;;1.37;1.27;;;17.30;99.90;;;;;;5075605;28;20502;-77
2021/06/22 01:15:22;;;;;;;1.53;0.70;;;17.20;99.90;;;;;;5081740;28;20431;-77
2021/06/22 01:17:55;;;;;;;1.33;0.93;;;17.20;99.90;;;;;;5085534;28;20444;-77
2021/06/22 01:20:22;;;;;;;0.80;0.60;;;17.20;99.90;;;;;;5085087;28;20443;-77
2021/06/22 01:22:48;;;;;;;1.30;1.20;;;17.20;99.90;;;;;;5074333;28;20432;-77
2021/06/22 01:25:15;;;;;;;1.10;1.00;;;17.10;99.90;;;;;;5075067;28;20530;-77
2021/06/22 01:27:42;;;;;;;0.70;0.60;;;17.10;99.90;;;;;;5085228;28;20534;-77
2021/06/22 01:30:08;;;;;;;2.93;1.17;;;17.10;99.90;;;;;;5083783;28;20491;-77
2021/06/22 01:32:34;;;;;;;1.30;0.90;;;17.10;99.90;;;;;;5089162;28;20845;-77
2021/06/22 01:35:00;;;;;;;0.93;0.70;;;17.10;99.90;;;;;;5090339;28;20470;-77
2021/06/22 01:37:25;;;;;;;1.70;1.27;;;17.10;99.90;;;;;;5093348;28;20834;-77
2021/06/22 01:39:51;;;;;;;0.70;0.50;;;17.00;99.90;;;;;;5094938;28;20184;-77
2021/06/22 01:42:18;;;;;;;1.53;0.80;;;17.00;99.90;;;;;;5087640;28;20186;-76
2021/06/22 01:44:47;;;;;;;0.90;0.70;;;17.00;99.90;;;;;;5085938;28;20432;-77
2021/06/22 01:47:13;;;;;;;0.97;0.87;;;17.00;99.90;;;;;;5078731;28;20463;-77
2021/06/22 01:49:39;;;;;;;1.63;1.53;;;17.00;99.90;;;;;;5082742;28;20440;-77
2021/06/22 01:52:05;;;;;;;1.93;1.30;;;17.00;99.90;;;;;;5081587;28;20427;-77
2021/06/22 01:54:30;;;;;;;1.20;0.73;;;17.00;99.90;;;;;;5086794;28;20597;-77
2021/06/22 01:56:58;;;;;;;1.87;1.73;;;17.00;99.90;;;;;;5091919;28;20607;-77
2021/06/22 01:59:23;;;;;;;1.00;0.83;;;17.00;99.90;;;;;;5086188;28;20178;-77
2021/06/22 02:01:49;;;;;;;0.70;0.70;;;17.00;99.90;;;;;;5093124;28;20431;-77
2021/06/22 02:04:16;;;;;;;0.87;0.70;;;17.00;99.90;;;;;;5094504;28;20472;-77
2021/06/22 02:06:42;;;;;;;2.77;0.97;;;17.00;99.90;;;;;;5075435;28;20669;-77
2021/06/22 02:09:07;;;;;;;1.23;1.13;;;17.00;99.90;;;;;;5084470;28;20463;-77
2021/06/22 02:11:33;;;;;;;1.63;1.23;;;17.00;99.90;;;;;;5085803;28;20215;-77
2021/06/22 02:13:59;;;;;;;4.67;1.17;;;17.00;99.90;;;;;;5082541;28;20208;-77
2021/06/22 02:16:24;;;;;;;1.10;1.00;;;17.00;99.90;;;;;;5098598;28;20170;-77
2021/06/22 02:18:50;;;;;;;0.70;0.60;;;17.00;99.90;;;;;;5083924;28;20203;-77
2021/06/22 02:21:15;;;;;;;1.10;1.00;;;16.90;99.90;;;;;;5082390;28;20222;-77
2021/06/22 02:23:41;;;;;;;1.50;0.83;;;17.00;99.90;;;;;;5088722;28;20174;-77
2021/06/22 02:26:07;;;;;;;0.70;0.60;;;17.00;99.90;;;;;;5079504;28;20190;-77
2021/06/22 02:28:33;;;;;;;0.80;0.60;;;16.90;99.90;;;;;;5089533;28;20197;-76
2021/06/22 02:30:59;;;;;;;1.43;0.90;;;17.00;99.90;;;;;;5089865;28;20190;-77
2021/06/22 02:33:26;;;;;;;0.80;0.80;;;16.90;99.90;;;;;;5076833;28;20432;-77
2021/06/22 02:35:52;;;;;;;1.00;0.90;;;16.90;99.90;;;;;;5086487;28;20912;-77
2021/06/22 02:38:18;;;;;;;1.43;1.33;;;16.90;99.90;;;;;;5081147;28;20459;-77
2021/06/22 02:40:44;;;;;;;1.20;0.70;;;16.90;99.90;;;;;;5081089;28;20428;-77
2021/06/22 02:43:10;;;;;;;1.13;1.03;;;16.80;99.90;;;;;;5073486;28;20707;-78
2021/06/22 02:45:36;;;;;;;0.80;0.70;;;16.80;99.90;;;;;;5079869;28;21018;-78
2021/06/22 02:48:03;;;;;;;5.00;1.97;;;16.80;99.90;;;;;;5088242;28;20440;-77
2021/06/22 02:50:28;;;;;;;0.80;0.70;;;16.80;99.90;;;;;;5082272;28;20215;-77
2021/06/22 02:52:54;;;;;;;1.73;0.87;;;16.80;99.90;;;;;;5084338;28;20514;-78
2021/06/22 02:55:20;;;;;;;0.80;0.60;;;16.80;99.90;;;;;;5092704;28;20200;-77
2021/06/22 02:57:48;;;;;;;0.87;0.77;;;16.80;99.90;;;;;;5089791;28;20681;-77
2021/06/22 03:00:16;;;;;;;0.70;0.50;;;16.80;99.90;;;;;;5079466;28;20586;-78
2021/06/22 03:02:42;;;;;;;1.27;1.17;;;16.80;99.90;;;;;;5080380;28;20439;-77
2021/06/22 03:05:08;;;;;;;0.70;0.50;;;16.80;99.90;;;;;;5082347;28;20440;-77
2021/06/22 03:07:34;;;;;;;0.97;0.97;;;16.80;99.90;;;;;;5072435;28;20206;-77
2021/06/22 03:09:59;;;;;;;1.10;0.90;;;16.70;99.90;;;;;;5092678;28;20451;-77
2021/06/22 03:12:25;;;;;;;1.00;0.80;;;16.70;99.90;;;;;;5082044;28;20199;-76
2021/06/22 03:14:50;;;;;;;1.57;0.80;;;16.70;99.90;;;;;;5078384;28;20319;-77
2021/06/22 03:17:16;;;;;;;1.37;1.27;;;16.70;99.90;;;;;;5083437;28;20205;-77
2021/06/22 03:19:41;;;;;;;1.23;0.67;;;16.60;99.90;;;;;;5084303;28;20178;-77
2021/06/22 03:22:07;;;;;;;1.20;0.60;;;16.60;99.90;;;;;;5081085;28;20174;-78
2021/06/22 03:24:33;;;;;;;0.90;0.70;;;16.50;99.90;;;;;;5073973;28;20174;-77
2021/06/22 03:26:58;;;;;;;1.57;0.80;;;16.50;99.90;;;;;;5083629;28;20209;-77
2021/06/22 03:29:25;;;;;;;0.97;0.87;;;16.50;99.90;;;;;;5074510;28;20257;-77
2021/06/22 03:31:51;;;;;;;0.80;0.60;;;16.50;99.90;;;;;;5085518;28;20220;-77
2021/06/22 03:34:16;;;;;;;1.20;0.80;;;16.50;99.90;;;;;;5079392;28;20498;-76
2021/06/22 03:36:43;;;;;;;0.70;0.50;;;16.50;99.90;;;;;;5080056;28;20431;-77
2021/06/22 03:39:08;;;;;;;0.70;0.50;;;16.40;99.90;;;;;;5080489;28;20530;-77
2021/06/22 03:41:35;;;;;;;1.10;0.87;;;16.40;99.90;;;;;;5083116;28;20424;-77
2021/06/22 03:44:00;;;;;;;0.80;0.60;;;16.40;99.90;;;;;;5076723;28;20201;-77
2021/06/22 03:46:26;;;;;;;1.10;1.00;;;16.40;99.90;;;;;;5081955;28;20842;-77
2021/06/22 03:48:52;;;;;;;0.90;0.80;;;16.40;99.90;;;;;;5083884;28;20292;-77
2021/06/22 03:51:17;;;;;;;0.80;0.60;;;16.40;99.90;;;;;;5080105;28;20201;-77
2021/06/22 03:53:43;;;;;;;1.83;1.50;;;16.40;99.90;;;;;;5081988;28;20268;-77
2021/06/22 03:56:10;;;;;;;1.57;1.20;;;16.30;99.90;;;;;;5086757;28;20674;-76
2021/06/22 03:58:35;;;;;;;2.00;0.87;;;16.30;99.90;;;;;;5087932;28;20331;-76
2021/06/22 04:01:03;;;;;;;1.50;1.40;;;16.30;99.90;;;;;;5082374;28;20519;-77
2021/06/22 04:03:28;;;;;;;0.90;0.70;;;16.30;99.90;;;;;;5073339;28;20189;-76
2021/06/22 04:05:54;;;;;;;1.53;0.90;;;16.30;99.90;;;;;;5090832;28;20828;-77
2021/06/22 04:08:19;;;;;;;1.83;0.80;;;16.30;99.90;;;;;;5076194;28;20193;-77
2021/06/22 04:10:46;;;;;;;2.30;1.80;;;16.30;99.90;;;;;;5074622;28;20671;-77
2021/06/22 04:13:12;;;;;;;1.50;0.93;;;16.30;99.90;;;;;;5077156;28;20250;-77
2021/06/22 04:15:37;;;;;;;1.20;1.10;;;16.30;99.90;;;;;;5075756;28;20570;-77
2021/06/22 04:18:05;;;;;;;2.90;2.70;;;16.30;99.90;;;;;;5087444;28;20197;-77
2021/06/22 04:20:32;;;;;;;7.47;2.27;;;16.20;99.90;;;;;;5079932;28;20185;-77
2021/06/22 04:22:57;;;;;;;0.80;0.70;;;16.20;99.90;;;;;;5075508;28;20435;-78
2021/06/22 04:25:23;;;;;;;1.27;0.90;;;16.20;99.90;;;;;;5074522;28;20423;-78
2021/06/22 04:27:49;;;;;;;1.30;0.80;;;16.20;99.90;;;;;;5081128;28;20234;-77
2021/06/22 04:30:15;;;;;;;0.80;0.70;;;16.20;99.90;;;;;;5081633;28;20206;-78
2021/06/22 04:32:41;;;;;;;1.03;0.80;;;16.20;99.90;;;;;;5076319;28;20442;-77
2021/06/22 04:35:07;;;;;;;0.70;0.50;;;16.20;99.90;;;;;;5076431;28;20780;-77
2021/06/22 04:37:33;;;;;;;1.93;1.83;;;16.20;99.90;;;;;;5081742;28;20196;-77
2021/06/22 04:39:58;;;;;;;1.37;1.27;;;16.10;99.90;;;;;;5073273;28;20420;-77
2021/06/22 04:42:24;;;;;;;1.97;1.87;;;16.10;99.90;;;;;;5072749;28;20182;-78
2021/06/22 04:44:49;;;;;;;1.20;1.10;;;16.10;99.90;;;;;;5076874;28;20182;-78
2021/06/22 04:47:15;;;;;;;1.07;1.00;;;16.00;99.90;;;;;;5077816;28;20250;-77
2021/06/22 04:49:41;;;;;;;0.83;0.70;;;15.90;99.90;;;;;;5081161;28;20562;-77
2021/06/22 04:52:06;;;;;;;3.13;1.60;;;16.00;99.90;;;;;;5080174;28;20538;-77
2021/06/22 04:54:32;;;;;;;1.40;1.30;;;16.00;99.90;;;;;;5082859;28;20646;-77
2021/06/22 04:56:58;;;;;;;2.00;1.23;;;16.00;99.90;;;;;;5085708;28;20190;-78
2021/06/22 04:59:24;;;;;;;3.93;1.33;;;16.10;99.90;;;;;;5088017;28;20165;-76
2021/06/22 05:01:50;;;;;;;2.10;1.47;;;16.10;99.90;;;;;;5079514;28;20869;-77
2021/06/22 05:04:15;;;;;;;3.67;1.43;;;16.10;99.90;;;;;;5074473;28;20182;-77
2021/06/22 05:06:41;;;;;;;1.80;1.70;;;16.10;99.90;;;;;;5077967;28;20188;-77
2021/06/22 05:09:07;;;;;;;1.10;0.80;;;16.10;99.90;;;;;;5080586;28;20250;-77
2021/06/22 05:11:32;;;;;;;4.17;1.57;;;16.20;99.90;;;;;;5089135;28;20622;-77
2021/06/22 05:13:58;;;;;;;0.80;0.70;;;16.20;99.90;;;;;;5079821;28;20203;-77
2021/06/22 05:16:23;;;;;;;0.80;0.80;;;16.20;99.90;;;;;;5076763;28;20182;-77
2021/06/22 05:18:50;;;;;;;1.17;0.80;;;16.20;99.90;;;;;;5073156;28;20209;-78
2021/06/22 05:21:15;;;;;;;1.33;0.83;;;16.20;99.90;;;;;;5078077;28;20184;-77
2021/06/22 05:23:41;;;;;;;1.47;1.37;;;16.20;99.90;;;;;;5091440;28;20526;-77
2021/06/22 05:26:07;;;;;;;1.47;1.00;;;16.30;99.90;;;;;;5087483;28;20174;-77
2021/06/22 05:28:32;;;;;;;0.87;0.60;;;16.20;99.90;;;;;;5085553;28;20717;-77
2021/06/22 05:30:58;;;;;;;0.70;0.60;;;16.20;99.90;;;;;;5079805;28;20569;-77
2021/06/22 05:33:23;;;;;;;0.70;0.50;;;16.30;99.90;;;;;;5078327;28;20231;-77
2021/06/22 05:35:49;;;;;;;0.70;0.60;;;16.20;99.90;;;;;;5082418;28;20234;-77
2021/06/22 05:38:14;;;;;;;1.70;1.40;;;16.30;99.90;;;;;;5084416;28;20194;-77
2021/06/22 05:40:40;;;;;;;0.73;0.60;;;16.20;99.90;;;;;;5082875;28;20181;-77
2021/06/22 05:43:06;;;;;;;0.80;0.60;;;16.20;99.90;;;;;;5080996;28;20255;-78
2021/06/22 05:45:31;;;;;;;1.10;1.00;;;16.20;99.90;;;;;;5087782;28;20262;-77
2021/06/22 05:47:57;;;;;;;0.70;0.60;;;16.20;99.90;;;;;;5078329;28;20220;-77
2021/06/22 05:50:22;;;;;;;0.90;0.60;;;16.30;99.90;;;;;;5072908;28;20284;-78
2021/06/22 05:52:49;;;;;;;0.80;0.60;;;16.30;99.90;;;;;;5077330;28;20174;-77
2021/06/22 05:55:21;;;;;;;6.20;1.77;;;16.30;99.90;;;;;;5076623;28;20180;-77
2021/06/22 05:57:48;;;;;;;0.80;0.80;;;16.30;99.90;;;;;;5076659;28;20444;-77
2021/06/22 06:00:16;;;;;;;1.93;0.87;;;16.30;99.90;;;;;;5080330;28;20454;-77
2021/06/22 06:02:41;;;;;;;0.80;0.67;;;16.40;99.90;;;;;;5076200;28;20466;-77
2021/06/22 06:05:09;;;;;;;0.70;0.50;;;16.30;99.90;;;;;;5074500;28;20459;-77
2021/06/22 06:07:35;;;;;;;1.60;1.50;;;16.30;99.90;;;;;;5091311;28;20275;-77
2021/06/22 06:10:01;;;;;;;1.00;0.80;;;16.30;99.90;;;;;;5088615;28;20455;-77
2021/06/22 06:12:26;;;;;;;0.70;0.50;;;16.30;99.90;;;;;;5077611;28;20434;-77
2021/06/22 06:14:52;;;;;;;0.70;0.60;;;16.30;99.90;;;;;;5083399;28;20169;-77
2021/06/22 06:17:17;;;;;;;0.70;0.60;;;16.40;99.90;;;;;;5092361;28;21189;-78
2021/06/22 06:19:44;;;;;;;1.00;0.90;;;16.40;99.90;;;;;;5080647;28;20188;-78
2021/06/22 06:22:09;;;;;;;0.93;0.60;;;16.50;99.90;;;;;;5087116;28;20194;-78
2021/06/22 06:24:35;;;;;;;0.70;0.50;;;16.50;99.90;;;;;;5079414;28;20459;-78
2021/06/22 06:27:06;;;;;;;0.70;0.50;;;16.50;99.90;;;;;;5079463;28;20280;-78
2021/06/22 06:32:16;;;;;;;1.67;1.37;;;16.40;99.90;;;;;;5078639;28;20519;-77
2021/06/22 06:34:42;;;;;;;0.70;0.50;;;16.40;99.90;;;;;;5083188;28;21094;-78
2021/06/22 06:37:07;;;;;;;0.70;0.53;;;16.40;99.90;;;;;;5094449;28;20193;-77
2021/06/22 06:39:33;;;;;;;0.80;0.70;;;16.60;99.90;;;;;;5083338;28;20261;-77
2021/06/22 06:41:58;;;;;;;0.70;0.50;;;16.70;99.90;;;;;;5091218;28;20181;-78
2021/06/22 06:44:24;;;;;;;3.67;0.90;;;16.70;99.90;;;;;;5098181;28;20208;-78
2021/06/22 06:46:49;;;;;;;0.80;0.70;;;16.70;99.90;;;;;;5082744;28;20626;-79
2021/06/22 06:49:15;;;;;;;0.90;0.60;;;16.70;99.90;;;;;;5081150;28;20662;-78
2021/06/22 06:51:41;;;;;;;0.77;0.70;;;16.80;99.90;;;;;;5089467;28;20240;-77
2021/06/22 06:54:06;;;;;;;0.80;0.60;;;16.70;99.90;;;;;;5089175;28;20174;-78
2021/06/22 06:56:32;;;;;;;0.90;0.70;;;16.80;99.90;;;;;;5086944;28;20670;-78
2021/06/22 06:58:58;;;;;;;1.47;1.17;;;16.80;99.90;;;;;;5074333;28;20672;-78
2021/06/22 07:01:23;;;;;;;0.70;0.50;;;16.90;99.90;;;;;;5078303;28;20170;-78
2021/06/22 07:03:49;;;;;;;0.70;0.50;;;16.90;99.90;;;;;;5079584;28;20178;-78
2021/06/22 07:06:15;;;;;;;0.80;0.60;;;17.10;99.90;;;;;;5075688;28;20182;-77
2021/06/22 07:08:41;;;;;;;1.10;0.83;;;17.30;99.90;;;;;;5089449;28;20205;-78
2021/06/22 07:11:07;;;;;;;0.80;0.70;;;17.60;99.90;;;;;;5081311;28;20506;-79
2021/06/22 07:13:33;;;;;;;2.10;1.90;;;17.70;99.90;;;;;;5097382;28;20488;-78
2021/06/22 07:15:58;;;;;;;0.80;0.60;;;17.80;99.90;;;;;;5092914;28;20170;-78
2021/06/22 07:18:24;;;;;;;1.00;0.90;;;17.80;99.90;;;;;;5087907;28;20221;-78
2021/06/22 07:20:50;;;;;;;1.10;0.80;;;17.90;99.90;;;;;;5085486;28;20593;-78
2021/06/22 07:23:15;;;;;;;8.13;3.43;;;17.90;99.90;;;;;;5080284;28;20174;-78
2021/06/22 07:25:41;;;;;;;2.27;1.60;;;17.90;99.90;;;;;;5075474;28;20827;-78
2021/06/22 07:28:07;;;;;;;0.80;0.60;;;17.80;99.90;;;;;;5079970;28;20225;-78
2021/06/22 07:30:33;;;;;;;0.80;0.80;;;17.80;99.90;;;;;;5093022;28;20192;-79
2021/06/22 07:32:59;;;;;;;1.17;1.00;;;17.80;99.90;;;;;;5088595;28;20678;-78
2021/06/22 07:35:26;;;;;;;2.50;2.40;;;17.80;99.90;;;;;;5083565;28;20430;-78
2021/06/22 07:37:52;;;;;;;1.40;0.73;;;17.70;99.90;;;;;;5074839;28;20971;-77
2021/06/22 07:40:17;;;;;;;0.80;0.70;;;17.70;99.90;;;;;;5080638;28;20511;-77
2021/06/22 07:42:43;;;;;;;2.30;0.93;;;17.70;99.90;;;;;;5087241;28;20182;-77
2021/06/22 07:45:10;;;;;;;2.30;1.30;;;17.70;99.90;;;;;;5077120;28;20594;-77
2021/06/22 07:47:35;;;;;;;1.70;1.13;;;17.60;99.90;;;;;;5089246;28;20201;-78
2021/06/22 07:50:01;;;;;;;3.60;2.00;;;17.50;99.90;;;;;;5079461;28;20451;-76
2021/06/22 07:52:26;;;;;;;1.90;0.90;;;17.50;99.90;;;;;;5087150;28;20204;-78
2021/06/22 07:54:52;;;;;;;0.70;0.50;;;17.60;99.90;;;;;;5081614;28;20177;-78
2021/06/22 07:57:18;;;;;;;1.53;1.43;;;17.50;99.90;;;;;;5076154;28;20768;-77
2021/06/22 07:59:43;;;;;;;1.07;0.97;;;17.50;99.90;;;;;;5080741;28;20178;-78
2021/06/22 08:02:09;;;;;;;2.07;1.90;;;17.40;99.90;;;;;;5089629;28;20423;-78
2021/06/22 08:04:35;;;;;;;0.93;0.80;;;17.40;99.90;;;;;;5086549;28;20541;-77
2021/06/22 08:07:00;;;;;;;1.00;0.90;;;17.40;99.90;;;;;;5080672;28;20571;-78
2021/06/22 08:09:26;;;;;;;0.80;0.60;;;17.40;99.90;;;;;;5082852;28;20174;-78
2021/06/22 08:11:52;;;;;;;1.50;1.13;;;17.50;99.90;;;;;;5074557;28;20202;-77
2021/06/22 08:14:17;;;;;;;1.37;1.30;;;17.50;99.90;;;;;;5078608;28;20575;-77
2021/06/22 08:16:43;;;;;;;0.70;0.57;;;17.50;99.90;;;;;;5075998;28;20242;-77
2021/06/22 08:19:09;;;;;;;1.00;0.90;;;17.50;99.90;;;;;;5090486;28;20608;-77
2021/06/22 08:21:35;;;;;;;2.00;1.60;;;17.60;99.90;;;;;;5075391;28;20468;-77
2021/06/22 08:24:00;;;;;;;2.00;1.10;;;17.60;99.90;;;;;;5076864;28;20185;-77
2021/06/22 08:26:26;;;;;;;2.00;1.90;;;17.60;99.90;;;;;;5081952;28;20169;-78
2021/06/22 08:28:52;;;;;;;1.70;1.60;;;17.80;99.90;;;;;;5086655;28;20204;-78
2021/06/22 08:31:19;;;;;;;2.03;1.63;;;17.90;99.90;;;;;;5088319;28;20204;-77
2021/06/22 08:33:45;;;;;;;1.37;0.80;;;17.90;99.90;;;;;;5094077;28;20176;-78
2021/06/22 08:36:10;;;;;;;0.90;0.70;;;18.00;99.90;;;;;;5094256;28;20432;-78
2021/06/22 08:38:36;;;;;;;0.90;0.70;;;18.10;99.90;;;;;;5093063;28;20451;-77
2021/06/22 08:41:05;;;;;;;1.43;1.13;;;18.10;99.90;;;;;;5084275;28;20178;-77
2021/06/22 08:43:31;;;;;;;2.30;1.20;;;18.20;99.90;;;;;;5072685;28;20433;-78
2021/06/22 08:45:57;;;;;;;1.17;0.87;;;18.20;99.90;;;;;;5071187;28;20413;-77
2021/06/22 08:48:24;;;;;;;2.00;1.87;;;18.20;99.90;;;;;;5076413;28;20455;-78
2021/06/22 08:50:50;;;;;;;0.80;0.70;;;18.20;99.90;;;;;;5076735;28;20201;-78
2021/06/22 08:53:15;;;;;;;1.40;1.20;;;18.20;99.90;;;;;;5074452;28;20519;-78
2021/06/22 08:55:42;;;;;;;0.90;0.80;;;18.20;99.90;;;;;;5091191;28;20451;-78
2021/06/22 08:58:11;;;;;;;0.70;0.60;;;18.20;99.90;;;;;;5084421;28;20221;-77
2021/06/22 09:00:42;;;;;;;1.53;1.40;;;18.10;99.90;;;;;;5075368;28;20450;-76
2021/06/22 09:03:13;;;;;;;1.60;1.50;;;18.10;99.90;;;;;;5075582;28;20978;-77
2021/06/22 09:05:47;;;;;;;0.87;0.73;;;18.10;99.90;;;;;;5097962;28;20424;-78
2021/06/22 09:08:25;;;;;;;1.67;1.57;;;18.10;99.90;;;;;;5088865;28;20459;-77
2021/06/22 09:10:53;;;;;;;2.90;1.00;;;18.20;99.90;;;;;;5074220;28;20983;-77
2021/06/22 09:13:24;;;;;;;1.33;0.80;;;18.30;99.90;;;;;;5086782;28;20430;-77
2021/06/22 09:15:51;;;;;;;0.80;0.63;;;18.40;99.90;;;;;;5077180;28;20432;-78
2021/06/22 09:18:29;;;;;;;2.50;2.40;;;18.50;99.90;;;;;;5077011;28;20519;-78
2021/06/22 09:21:07;;;;;;;1.37;0.90;;;18.50;99.90;;;;;;5071251;28;20468;-78
2021/06/22 09:23:36;;;;;;;1.00;0.80;;;18.50;99.90;;;;;;5078517;28;20477;-77
2021/06/22 09:26:09;;;;;;;0.80;0.80;;;18.50;99.90;;;;;;5075629;28;20430;-78
2021/06/22 09:28:34;;;;;;;1.63;1.53;;;18.50;99.90;;;;;;5078976;28;21022;-79
2021/06/22 09:31:05;;;;;;;1.10;0.97;;;18.50;99.90;;;;;;5089314;28;20485;-79
2021/06/22 09:33:39;;;;;;;0.70;0.50;;;18.50;99.90;;;;;;5079761;28;20177;-75
2021/06/22 09:36:12;;;;;;;0.97;0.70;;;18.60;99.90;;;;;;5072134;28;20427;-76
2021/06/22 09:38:45;;;;;;;0.80;0.60;;;18.60;99.90;;;;;;5081615;28;20463;-79
2021/06/22 09:41:15;;;;;;;3.53;1.67;;;18.60;99.90;;;;;;5072722;28;20436;-77
2021/06/22 09:43:46;;;;;;;1.00;0.90;;;18.60;99.90;;;;;;5080455;28;20459;-76
2021/06/22 09:46:13;;;;;;;1.33;1.23;;;18.50;99.90;;;;;;5083642;28;20450;-78
2021/06/22 09:48:55;;;;;;;1.33;1.23;;;18.50;99.90;;;;;;5073466;28;20867;-78
2021/06/22 09:51:34;;;;;;;1.13;1.03;;;18.50;99.90;;;;;;5089176;28;20467;-78
2021/06/22 09:54:08;;;;;;;2.67;2.57;;;18.50;99.90;;;;;;5076147;28;20415;-78
2021/06/22 09:56:34;;;;;;;1.20;1.03;;;18.60;99.90;;;;;;5077858;28;20420;-78
2021/06/22 09:59:08;;;;;;;1.00;0.83;;;18.50;99.90;;;;;;5075470;28;21012;-77
2021/06/22 10:01:36;;;;;;;0.90;0.80;;;18.50;99.90;;;;;;5083473;28;20185;-77
2021/06/22 10:04:17;;;;;;;3.10;1.23;;;18.50;99.90;;;;;;5077249;28;21000;-76
2021/06/22 10:06:52;;;;;;;1.87;1.10;;;18.50;99.90;;;;;;5074076;28;20427;-76
2021/06/22 10:09:31;;;;;;;2.30;2.20;;;18.60;99.90;;;;;;5076456;28;20450;-77
2021/06/22 10:12:08;;;;;;;1.67;1.57;;;18.60;99.90;;;;;;5074740;28;20451;-77
2021/06/22 10:14:46;;;;;;;1.50;1.10;;;18.60;99.90;;;;;;5082450;28;20806;-77
2021/06/22 10:17:17;;;;;;;0.80;0.70;;;18.70;99.90;;;;;;5089591;28;21041;-78
2021/06/22 10:19:45;;;;;;;1.10;1.00;;;18.90;99.90;;;;;;5078272;28;20424;-78
2021/06/22 10:22:32;;;;;;;1.43;1.23;;;18.90;99.90;;;;;;5090149;28;20454;-85
2021/06/22 10:25:00;;;;;;;1.27;1.13;;;19.10;99.90;;;;;;5077125;28;20959;-82
2021/06/22 10:27:27;;;;;;;1.33;1.23;;;19.20;99.90;;;;;;5080656;28;20436;-81
2021/06/22 10:33:00;;;;;;;1.90;1.33;;;19.40;99.90;;;;;;5087337;28;20438;-81
2021/06/22 10:35:26;;;;;;;0.93;0.70;;;19.50;99.90;;;;;;5080137;28;20420;-83
2021/06/22 10:38:02;;;;;;;1.33;1.23;;;19.60;99.90;;;;;;5082294;28;20565;-81
2021/06/22 10:40:30;;;;;;;1.20;0.80;;;19.70;99.90;;;;;;5088689;28;20178;-82
2021/06/22 10:42:58;;;;;;;1.33;1.20;;;19.70;99.90;;;;;;5092755;28;20420;-81
2021/06/22 10:45:23;;;;;;;2.10;1.30;;;19.80;99.90;;;;;;5078825;28;20513;-82
2021/06/22 10:48:28;;;;;;;1.30;0.80;;;19.80;99.90;;;;;;5085027;28;20511;-82
2021/06/22 10:51:43;;;;;;;0.80;0.70;;;19.80;99.90;;;;;;5084738;28;20216;-82
2021/06/22 10:54:13;;;;;;;1.47;0.83;;;19.60;99.90;;;;;;5100806;28;20533;-81
2021/06/22 10:56:42;;;;;;;1.53;1.00;;;19.60;99.90;;;;;;5088585;28;20438;-82
2021/06/22 10:59:18;;;;;;;0.80;0.70;;;19.60;99.90;;;;;;5087394;28;20427;-81
2021/06/22 11:01:53;;;;;;;1.00;0.77;;;19.60;99.90;;;;;;5078018;28;20428;-81
2021/06/22 11:04:20;;;;;;;6.00;0.90;;;19.60;99.90;;;;;;5073707;28;20420;-81
2021/06/22 11:07:15;;;;;;;0.80;0.63;;;19.60;99.90;;;;;;5072011;28;20573;-82
2021/06/22 11:09:42;;;;;;;1.43;1.33;;;19.70;99.90;;;;;;5077440;28;20425;-82
2021/06/22 11:12:20;;;;;;;0.80;0.60;;;19.80;99.90;;;;;;5081039;28;20455;-82
2021/06/22 11:15:05;;;;;;;1.00;0.70;;;19.80;99.90;;;;;;5083698;28;20584;-81
2021/06/22 11:17:54;;;;;;;1.40;1.30;;;19.80;99.90;;;;;;5078284;28;20446;-81
2021/06/22 11:20:20;;;;;;;3.10;1.33;;;19.80;99.90;;;;;;5069572;28;20962;-81
2021/06/22 11:22:55;;;;;;;2.30;2.10;;;19.80;99.90;;;;;;5072870;28;20460;-81
2021/06/22 11:25:21;;;;;;;2.30;1.37;;;19.90;99.90;;;;;;5074571;28;20606;-81
2021/06/22 11:28:05;;;;;;;1.20;0.70;;;19.80;99.90;;;;;;5076047;28;20455;-80
2021/06/22 11:30:51;;;;;;;0.80;0.60;;;19.80;99.90;;;;;;5085781;28;20447;-81
2021/06/22 11:33:41;;;;;;;0.80;0.80;;;19.80;99.90;;;;;;5079830;28;20888;-82
2021/06/22 11:36:19;;;;;;;1.40;1.03;;;19.80;99.90;;;;;;5080821;28;20419;-82
2021/06/22 11:39:05;;;;;;;0.80;0.57;;;19.70;99.90;;;;;;5077070;28;20505;-81
2021/06/22 11:41:31;;;;;;;0.73;0.60;;;19.60;99.90;;;;;;5084031;28;20411;-81
2021/06/22 11:44:09;;;;;;;0.70;0.60;;;19.60;99.90;;;;;;5084766;28;20427;-81
2021/06/22 11:46:40;;;;;;;1.00;0.80;;;19.60;99.90;;;;;;5072728;28;20182;-82
2021/06/22 11:49:06;;;;;;;0.80;0.70;;;19.50;99.90;;;;;;5076089;28;20714;-81
2021/06/22 11:51:47;;;;;;;1.47;0.97;;;19.50;99.90;;;;;;5077605;28;20467;-81
2021/06/22 11:54:17;;;;;;;0.70;0.50;;;19.50;99.90;;;;;;5083110;28;20204;-81
2021/06/22 11:56:52;;;;;;;1.00;0.80;;;19.50;99.90;;;;;;5075715;28;20918;-82
2021/06/22 11:59:20;;;;;;;0.73;0.57;;;19.40;99.90;;;;;;5075208;28;20461;-81
2021/06/22 12:01:46;;;;;;;0.80;0.60;;;19.40;99.90;;;;;;5076770;28;20921;-82
2021/06/22 12:04:12;;;;;;;1.20;0.97;;;19.40;99.90;;;;;;5082047;28;20432;-81
2021/06/22 12:06:38;;;;;;;2.40;1.83;;;19.40;99.90;;;;;;5087699;28;20421;-81
2021/06/22 12:09:19;;;;;;;1.00;0.90;;;19.40;99.90;;;;;;5071636;28;20434;-81
2021/06/22 12:11:47;;;;;;;1.10;0.80;;;19.40;99.90;;;;;;5076131;28;20208;-81
2021/06/22 12:14:13;;;;;;;1.20;1.00;;;19.40;99.90;;;;;;5070934;28;20959;-77
2021/06/22 12:16:40;;;;;;;1.10;1.00;;;19.40;99.90;;;;;;5083036;28;20424;-77
2021/06/22 12:19:06;;;;;;;0.80;0.70;;;19.40;99.90;;;;;;5083933;28;20439;-76
2021/06/22 12:21:34;;;;;;;1.33;1.20;;;19.40;99.90;;;;;;5092586;28;20482;-76
2021/06/22 12:24:02;;;;;;;1.10;0.90;;;19.40;99.90;;;;;;5083925;28;20458;-75
2021/06/22 12:26:27;;;;;;;0.70;0.50;;;19.30;99.90;;;;;;5074652;28;20551;-76
2021/06/22 12:28:53;;;;;;;5.90;2.27;;;19.20;99.90;;;;;;5104166;23;20578;-76
2021/06/22 12:31:21;;;;;;;1.23;1.07;;;19.10;99.90;;;;;;5090308;28;20197;-77
2021/06/22 12:33:50;;;;;;;1.67;1.57;;;19.10;99.90;;;;;;5088824;28;20630;-77
2021/06/22 12:36:23;;;;;;;1.37;0.87;;;19.10;99.90;;;;;;5090238;28;20451;-76
2021/06/22 12:38:56;;;;;;;1.23;1.13;;;19.10;99.90;;;;;;5100389;28;20438;-76
2021/06/22 12:45:24;;;;;;;2.03;1.83;;;19.00;99.90;;;;;;5054852;28;20475;-76
2021/06/22 12:47:53;;;;;;;1.47;1.10;;;18.90;99.90;;;;;;5069647;28;20475;-76
2021/06/22 12:50:20;;;;;;;1.33;0.80;;;18.80;99.90;;;;;;5102930;28;20543;-76
2021/06/22 12:52:46;;;;;;;1.20;1.10;;;18.80;99.90;;;;;;5110460;28;20957;-76
2021/06/22 12:55:56;;;;;;;3.17;2.97;;;18.80;99.90;;;;;;5111814;28;20454;-77
2021/06/22 12:58:24;;;;;;;0.90;0.83;;;18.70;99.90;;;;;;5097419;28;20189;-76
2021/06/22 13:07:36;;;;;;;1.70;1.60;;;18.70;99.90;;;;;;5103571;28;20475;-76
2021/06/22 13:10:15;;;;;;;1.17;1.07;;;18.60;99.90;;;;;;5103460;28;20454;-76